Time;durP1;ratioP1;P1;durP2;ratioP2;P2;SDS_P1;SDS_P2;PMS_P1;PMS_P2;Temp;Humidity;BMP_temperature;BMP_pressure;BME280_temperature;BME280_humidity;BME280_pressure;Samples;Min_cycle;Max_cycle;Signal;HPM_P1;HPM_P2
2024/01/24 00:02:22;;;;;;;19.85;5.10;;;;;;;9.69;100.00;100678.78;6327644;28;20052;-78
2024/01/24 00:05:24;;;;;;;12.27;4.90;;;;;;;9.75;100.00;100688.97;6327175;28;20048;-77
2024/01/24 00:08:25;;;;;;;7.90;4.72;;;;;;;9.76;100.00;100671.44;6326902;28;20076;-77
2024/01/24 00:11:29;;;;;;;10.02;5.30;;;;;;;9.81;100.00;100661.56;6327350;28;20051;-78
2024/01/24 00:14:30;;;;;;;9.90;5.88;;;;;;;9.82;100.00;100653.63;6327211;28;20044;-78
2024/01/24 00:17:32;;;;;;;9.55;5.53;;;;;;;9.92;100.00;100674.97;6326436;28;20059;-77
2024/01/24 00:20:33;;;;;;;8.68;4.75;;;;;;;9.98;100.00;100652.81;6327416;28;20443;-77
2024/01/24 00:23:34;;;;;;;10.32;4.95;;;;;;;9.95;100.00;100642.47;6340040;22;20464;-73
2024/01/24 00:26:38;;;;;;;9.65;5.78;;;;;;;9.95;100.00;100618.84;6301687;28;20049;-73
2024/01/24 00:29:40;;;;;;;10.68;5.00;;;;;;;10.03;100.00;100625.38;6323352;28;20047;-73
2024/01/24 00:32:42;;;;;;;8.65;5.40;;;;;;;10.05;100.00;100604.31;6315470;28;20048;-75
2024/01/24 00:35:43;;;;;;;9.20;5.45;;;;;;;10.04;100.00;100610.50;6301776;28;20050;-73
2024/01/24 00:38:44;;;;;;;10.13;5.15;;;;;;;10.08;100.00;100588.38;6301350;28;20044;-74
2024/01/24 00:41:47;;;;;;;7.75;4.95;;;;;;;10.11;100.00;100602.19;6301107;28;20044;-74
2024/01/24 00:44:50;;;;;;;9.65;5.28;;;;;;;10.13;100.00;100581.13;6301025;28;20048;-72
2024/01/24 00:47:52;;;;;;;11.15;5.97;;;;;;;10.15;100.00;100598.47;6300576;28;20070;-74
2024/01/24 00:50:54;;;;;;;10.15;5.15;;;;;;;10.18;100.00;100599.25;6303857;28;20440;-72
2024/01/24 00:53:55;;;;;;;8.48;4.75;;;;;;;10.17;100.00;100587.88;6325999;28;20479;-75
2024/01/24 00:56:58;;;;;;;10.18;4.93;;;;;;;10.28;100.00;100603.09;6325995;28;20044;-75
2024/01/24 00:59:59;;;;;;;9.50;5.78;;;;;;;10.25;100.00;100585.72;6326171;28;20054;-75
2024/01/24 01:03:00;;;;;;;14.05;5.93;;;;;;;10.31;100.00;100585.41;6325743;28;20055;-75
2024/01/24 01:06:02;;;;;;;11.75;5.75;;;;;;;10.40;100.00;100610.28;6325703;28;20071;-74
2024/01/24 01:09:04;;;;;;;16.67;5.80;;;;;;;10.46;100.00;100593.38;6325953;28;20044;-75
2024/01/24 01:12:07;;;;;;;11.40;5.53;;;;;;;10.53;100.00;100600.81;6326197;28;20355;-74
2024/01/24 01:15:09;;;;;;;11.68;4.85;;;;;;;10.54;100.00;100602.53;6325560;28;20330;-74
2024/01/24 01:18:10;;;;;;;10.88;5.00;;;;;;;10.63;100.00;100588.88;6325669;28;20058;-74
2024/01/24 01:21:12;;;;;;;8.75;5.07;;;;;;;10.66;100.00;100585.22;6325837;28;20048;-74
2024/01/24 01:24:13;;;;;;;10.13;5.78;;;;;;;10.70;100.00;100597.25;6325591;28;20048;-73
2024/01/24 01:27:16;;;;;;;10.88;6.10;;;;;;;10.77;100.00;100588.09;6325313;28;20052;-74
2024/01/24 01:30:17;;;;;;;15.15;5.78;;;;;;;10.86;100.00;100578.84;6325932;28;20048;-74
2024/01/24 01:33:19;;;;;;;11.35;6.15;;;;;;;10.89;100.00;100573.38;6325418;28;20055;-74
2024/01/24 01:36:20;;;;;;;12.82;5.72;;;;;;;10.92;100.00;100570.59;6325094;28;20052;-75
2024/01/24 01:39:21;;;;;;;9.18;6.15;;;;;;;10.85;100.00;100582.38;6325391;28;20436;-73
2024/01/24 01:42:24;;;;;;;14.70;6.78;;;;;;;10.90;100.00;100562.81;6325166;28;20429;-74
2024/01/24 01:45:25;;;;;;;12.40;5.85;;;;;;;10.93;100.00;100567.03;6325186;28;20044;-74
2024/01/24 01:48:27;;;;;;;9.98;5.63;;;;;;;10.92;100.00;100563.56;6324898;28;20044;-72
2024/01/24 01:51:29;;;;;;;11.73;6.25;;;;;;;11.01;100.00;100564.81;6324797;28;20087;-73
2024/01/24 01:54:30;;;;;;;13.55;6.47;;;;;;;11.03;100.00;100567.34;6324861;28;20078;-73
2024/01/24 01:57:34;;;;;;;9.95;6.40;;;;;;;11.00;100.00;100562.28;6324988;28;20055;-73
2024/01/24 02:00:35;;;;;;;11.52;6.10;;;;;;;11.07;100.00;100553.91;6325022;28;20048;-74
2024/01/24 02:03:37;;;;;;;12.02;6.25;;;;;;;11.14;100.00;100536.84;6324893;28;20360;-74
2024/01/24 02:06:39;;;;;;;12.68;6.82;;;;;;;11.11;100.00;100536.19;6324512;28;20058;-74
2024/01/24 02:09:40;;;;;;;14.85;5.47;;;;;;;11.10;100.00;100545.00;6325598;28;20051;-72
2024/01/24 02:12:43;;;;;;;13.40;6.57;;;;;;;11.15;100.00;100521.91;6324925;28;20047;-73
2024/01/24 02:15:44;;;;;;;14.05;6.45;;;;;;;11.18;100.00;100548.03;6324941;28;20059;-73
2024/01/24 02:18:46;;;;;;;10.98;6.50;;;;;;;11.26;100.00;100519.47;6324640;28;20048;-73
2024/01/24 02:21:47;;;;;;;11.85;6.03;;;;;;;11.23;100.00;100526.72;6324989;28;20052;-74
2024/01/24 02:24:50;;;;;;;10.90;5.75;;;;;;;11.27;100.00;100512.47;6324547;28;20364;-74
2024/01/24 02:27:51;;;;;;;15.35;6.30;;;;;;;11.33;100.00;100526.06;6324365;28;20352;-74
2024/01/24 02:30:53;;;;;;;18.65;5.90;;;;;;;11.48;100.00;100513.78;6325027;28;20044;-74
2024/01/24 02:33:54;;;;;;;11.10;5.13;;;;;;;11.45;100.00;100508.72;6324471;28;20044;-73
2024/01/24 02:36:55;;;;;;;6.55;4.38;;;;;;;11.47;100.00;100511.25;6324364;28;20071;-73
2024/01/24 02:39:58;;;;;;;8.32;5.25;;;;;;;11.48;100.00;100499.78;6324789;28;20048;-74
2024/01/24 02:42:59;;;;;;;8.85;4.82;;;;;;;11.45;100.00;100507.88;6324709;28;20052;-73
2024/01/24 02:46:01;;;;;;;10.30;4.05;;;;;;;11.40;100.00;100498.47;6324160;28;20433;-74
2024/01/24 02:49:02;;;;;;;12.90;4.47;;;;;;;11.45;100.00;100487.66;6324557;28;20070;-74
2024/01/24 02:52:04;;;;;;;5.85;3.72;;;;;;;11.43;100.00;100469.31;6323473;28;20051;-73
2024/01/24 02:55:08;;;;;;;10.63;4.50;;;;;;;11.36;100.00;100468.03;6324015;28;20471;-74
2024/01/24 02:58:09;;;;;;;11.13;3.67;;;;;;;11.31;100.00;100471.84;6324194;28;20052;-72
2024/01/24 03:01:11;;;;;;;6.75;3.65;;;;;;;11.42;100.00;100453.63;6324290;28;20048;-73
2024/01/24 03:04:12;;;;;;;12.85;2.95;;;;;;;11.41;100.00;100452.78;6327129;28;20052;-72
2024/01/24 03:07:13;;;;;;;6.85;3.30;;;;;;;11.47;100.00;100463.88;6328585;28;20079;-73
2024/01/24 03:10:17;;;;;;;9.93;2.85;;;;;;;11.56;100.00;100448.38;6328267;28;20040;-74
2024/01/24 03:13:18;;;;;;;5.50;2.92;;;;;;;11.56;100.00;100448.38;6325557;28;20055;-73
2024/01/24 03:16:20;;;;;;;4.63;2.92;;;;;;;11.54;100.00;100446.78;6328463;28;20185;-72
2024/01/24 03:19:21;;;;;;;4.80;2.72;;;;;;;11.49;100.00;100433.03;6328385;28;20036;-73
2024/01/24 03:22:24;;;;;;;10.30;2.38;;;;;;;11.51;100.00;100450.44;6328773;28;20055;-72
2024/01/24 03:25:27;;;;;;;3.83;2.35;;;;;;;11.50;100.00;100445.28;6327977;28;20048;-72
2024/01/24 03:28:28;;;;;;;3.75;2.40;;;;;;;11.55;100.00;100445.84;6326010;28;20044;-72
2024/01/24 03:31:30;;;;;;;2.85;1.80;;;;;;;11.50;100.00;100432.13;6328727;28;20345;-74
2024/01/24 03:34:31;;;;;;;7.97;2.67;;;;;;;11.52;100.00;100419.69;6327780;28;20358;-73
2024/01/24 03:37:33;;;;;;;3.33;1.95;;;;;;;11.51;100.00;100447.81;6327562;28;20051;-73
2024/01/24 03:40:35;;;;;;;3.08;2.42;;;;;;;11.50;100.00;100448.75;6328026;28;20046;-74
2024/01/24 03:43:39;;;;;;;8.70;2.95;;;;;;;11.53;100.00;100413.50;6327250;28;20047;-73
2024/01/24 03:46:40;;;;;;;6.72;2.47;;;;;;;11.55;100.00;100399.31;6327855;28;20055;-73
2024/01/24 03:49:41;;;;;;;2.85;2.20;;;;;;;11.57;100.00;100405.31;6328443;28;20047;-73
2024/01/24 03:52:43;;;;;;;5.90;2.47;;;;;;;11.61;100.00;100404.19;6327920;28;20051;-74
2024/01/24 03:55:45;;;;;;;4.47;2.28;;;;;;;11.60;100.00;100401.66;6328114;28;20341;-72
2024/01/24 03:58:47;;;;;;;1.95;1.67;;;;;;;11.66;100.00;100398.63;6327612;28;20055;-72
2024/01/24 04:01:48;;;;;;;1.92;1.60;;;;;;;11.68;100.00;100386.22;6327700;28;20040;-72
2024/01/24 04:04:49;;;;;;;5.43;1.60;;;;;;;11.72;100.00;100398.25;6327660;28;20048;-72
2024/01/24 04:07:51;;;;;;;4.55;2.08;;;;;;;11.64;100.00;100388.19;6327079;28;20059;-73
2024/01/24 04:10:53;;;;;;;4.00;1.42;;;;;;;11.67;100.00;100384.50;6327908;28;20048;-73
2024/01/24 04:13:56;;;;;;;1.02;0.93;;;;;;;11.78;100.00;100391.75;6327139;28;20055;-76
2024/01/24 04:16:58;;;;;;;2.35;1.10;;;;;;;11.78;100.00;100400.47;6326571;28;20472;-74
2024/01/24 04:20:00;;;;;;;0.70;0.70;;;;;;;11.83;100.00;100395.78;6327377;28;20329;-77
2024/01/24 04:23:01;;;;;;;2.65;0.68;;;;;;;11.80;100.00;100398.56;6327225;28;20459;-74
2024/01/24 04:26:05;;;;;;;0.40;0.40;;;;;;;11.93;100.00;100386.34;6326991;28;20440;-78
2024/01/24 04:29:06;;;;;;;2.38;0.45;;;;;;;11.93;100.00;100402.16;6327108;28;20173;-76
2024/01/24 04:32:08;;;;;;;0.35;0.35;;;;;;;12.00;100.00;100441.28;6327259;28;20040;-77
2024/01/24 04:35:10;;;;;;;0.40;0.35;;;;;;;12.06;100.00;100427.69;6326779;28;20052;-76
2024/01/24 04:38:11;;;;;;;1.30;0.38;;;;;;;12.08;100.00;100420.53;6326473;28;20054;-74
2024/01/24 04:41:14;;;;;;;1.50;0.50;;;;;;;12.02;100.00;100434.94;6326802;28;20044;-76
2024/01/24 04:44:15;;;;;;;1.58;0.50;;;;;;;12.06;100.00;100443.50;6326753;28;20141;-74
2024/01/24 04:47:17;;;;;;;2.13;0.63;;;;;;;12.14;100.00;100457.88;6326021;28;20052;-77
2024/01/24 04:50:18;;;;;;;1.25;0.65;;;;;;;12.26;100.00;100458.84;6326139;28;20344;-75
2024/01/24 04:53:20;;;;;;;2.28;0.50;;;;;;;12.18;100.00;100450.63;6325748;28;20463;-76
2024/01/24 04:56:23;;;;;;;9.38;0.47;;;;;;;12.08;100.00;100460.03;6325756;28;20459;-75
2024/01/24 04:59:24;;;;;;;7.45;0.98;;;;;;;12.00;100.00;100464.97;6325934;28;20051;-75
2024/01/24 05:02:25;;;;;;;5.35;0.82;;;;;;;11.94;100.00;100482.00;6326169;28;20059;-76
2024/01/24 05:05:27;;;;;;;6.07;0.82;;;;;;;11.99;100.00;100466.78;6326259;28;20048;-76
2024/01/24 05:08:29;;;;;;;6.80;1.20;;;;;;;11.98;100.00;100475.59;6325321;28;20063;-76
2024/01/24 05:11:31;;;;;;;4.90;0.90;;;;;;;12.00;100.00;100489.53;6325717;28;20086;-76
2024/01/24 05:14:34;;;;;;;3.25;0.63;;;;;;;11.97;100.00;100494.97;6325973;28;20054;-76
2024/01/24 05:17:35;;;;;;;4.53;0.75;;;;;;;11.98;100.00;100522.16;6325691;28;20043;-77
2024/01/24 05:20:37;;;;;;;3.03;0.40;;;;;;;12.08;100.00;100520.63;6325896;28;20051;-76
2024/01/24 05:23:38;;;;;;;1.35;0.63;;;;;;;12.06;100.00;100507.56;6325680;28;20428;-76
2024/01/24 05:26:43;;;;;;;6.10;0.98;;;;;;;12.08;100.00;100515.34;6325362;28;20052;-74
2024/01/24 05:29:47;;;;;;;3.15;0.82;;;;;;;12.19;100.00;100545.34;6325995;28;20048;-75
2024/01/24 05:32:48;;;;;;;7.82;0.85;;;;;;;12.24;100.00;100546.84;6325521;28;20064;-76
2024/01/24 05:35:51;;;;;;;6.43;0.77;;;;;;;12.22;100.00;100522.38;6325681;28;20459;-75
2024/01/24 05:38:53;;;;;;;4.65;0.80;;;;;;;12.18;100.00;100537.56;6325449;28;20063;-73
2024/01/24 05:41:55;;;;;;;6.10;1.50;;;;;;;12.24;100.00;100570.56;6325503;28;20051;-74
2024/01/24 05:44:57;;;;;;;7.80;1.20;;;;;;;12.27;100.00;100536.13;6325331;28;20050;-74
2024/01/24 05:47:58;;;;;;;8.15;1.08;;;;;;;12.26;100.00;100558.97;6325061;28;20051;-75
2024/01/24 05:50:59;;;;;;;8.95;0.82;;;;;;;12.31;100.00;100559.56;6325488;28;20578;-75
2024/01/24 05:54:01;;;;;;;4.90;1.00;;;;;;;12.32;100.00;100553.34;6324985;28;20044;-75
2024/01/24 05:57:03;;;;;;;8.68;1.45;;;;;;;12.19;100.00;100549.78;6324997;28;20050;-74
2024/01/24 06:00:08;;;;;;;10.73;1.00;;;;;;;12.10;100.00;100603.06;6325106;28;20048;-76
2024/01/24 06:03:09;;;;;;;7.95;1.40;;;;;;;12.05;100.00;100561.19;6325018;28;20043;-77
2024/01/24 06:06:10;;;;;;;7.55;1.48;;;;;;;12.01;100.00;100601.81;6324739;28;20052;-74
2024/01/24 06:09:12;;;;;;;18.27;2.58;;;;;;;12.02;100.00;100579.81;6325091;28;20048;-75
2024/01/24 06:12:14;;;;;;;9.85;1.40;;;;;;;11.80;100.00;100556.53;6324968;28;20067;-77
2024/01/24 06:15:18;;;;;;;6.70;1.08;;;;;;;11.73;100.00;100572.84;6324293;28;20424;-74
2024/01/24 06:18:19;;;;;;;10.75;1.50;;;;;;;11.61;100.00;100601.56;6324674;28;20055;-73
2024/01/24 06:21:21;;;;;;;13.10;1.40;;;;;;;11.61;100.00;100606.84;6324829;28;20334;-76
2024/01/24 06:24:22;;;;;;;4.68;1.17;;;;;;;11.49;100.00;100601.44;6337981;22;20135;-76
2024/01/24 06:27:25;;;;;;;15.52;1.08;;;;;;;11.29;100.00;100619.28;6325328;28;20063;-76
2024/01/24 06:30:26;;;;;;;10.13;1.88;;;;;;;11.06;100.00;100625.03;6350001;28;20345;-76
2024/01/24 06:33:28;;;;;;;12.77;1.70;;;;;;;11.01;100.00;100627.91;6333732;28;20075;-76
2024/01/24 06:36:29;;;;;;;8.30;1.67;;;;;;;10.83;100.00;100627.16;6324465;28;20051;-75
2024/01/24 06:39:30;;;;;;;9.45;1.40;;;;;;;10.83;100.00;100634.22;6328214;28;20071;-77
2024/01/24 06:42:33;;;;;;;17.40;2.13;;;;;;;10.74;100.00;100629.47;6329284;28;20352;-77
2024/01/24 06:45:34;;;;;;;13.65;1.23;;;;;;;10.74;100.00;100643.44;6329797;28;20058;-77
2024/01/24 06:48:36;;;;;;;11.50;1.63;;;;;;;10.70;100.00;100641.94;6329276;28;20063;-76
2024/01/24 06:51:38;;;;;;;10.57;1.73;;;;;;;10.63;100.00;100620.41;6329856;28;20051;-77
2024/01/24 06:54:39;;;;;;;26.10;1.98;;;;;;;10.61;100.00;100651.16;6329216;28;20142;-78
2024/01/24 06:57:42;;;;;;;10.07;1.45;;;;;;;10.72;100.00;100634.81;6329478;28;20511;-79
2024/01/24 07:00:43;;;;;;;16.02;2.20;;;;;;;10.80;100.00;100637.84;6333891;28;20048;-80
2024/01/24 07:03:45;;;;;;;17.75;2.30;;;;;;;10.68;100.00;100648.22;6353907;28;20047;-79
2024/01/24 07:06:46;;;;;;;17.48;1.77;;;;;;;10.81;100.00;100672.88;6328662;28;20052;-78
2024/01/24 07:09:48;;;;;;;24.42;3.13;;;;;;;10.88;100.00;100677.72;6349232;27;20424;-78
2024/01/24 07:12:51;;;;;;;20.35;2.95;;;;;;;10.85;100.00;100677.88;6354171;28;20065;-78
2024/01/24 07:15:52;;;;;;;9.32;2.22;;;;;;;10.78;100.00;100666.00;6353723;28;20104;-77
2024/01/24 07:18:54;;;;;;;18.27;1.88;;;;;;;10.75;100.00;100702.97;6354372;28;20055;-78
2024/01/24 07:21:55;;;;;;;17.55;2.22;;;;;;;10.80;100.00;100702.72;6351762;28;20352;-75
2024/01/24 07:24:56;;;;;;;26.25;3.08;;;;;;;10.81;100.00;100700.03;6351126;27;20055;-76
2024/01/24 07:27:59;;;;;;;17.52;2.58;;;;;;;10.80;100.00;100711.44;6352082;27;20047;-76
2024/01/24 07:31:00;;;;;;;13.18;2.20;;;;;;;10.93;100.00;100728.25;6353686;28;20047;-75
2024/01/24 07:34:02;;;;;;;20.77;2.72;;;;;;;11.07;100.00;100722.22;6353820;28;20052;-76
2024/01/24 07:37:03;;;;;;;34.47;4.53;;;;;;;11.14;100.00;100726.22;6353547;27;20051;-77
2024/01/24 07:40:07;;;;;;;14.60;2.42;;;;;;;11.27;100.00;100717.66;6353793;28;20169;-76
2024/01/24 07:43:09;;;;;;;19.63;1.90;;;;;;;11.11;100.00;100736.06;6353698;28;20043;-70
2024/01/24 07:46:11;;;;;;;20.27;2.45;;;;;;;11.23;100.00;100722.22;6353309;28;20059;-76
2024/01/24 07:49:12;;;;;;;10.95;2.75;;;;;;;11.23;100.00;100719.59;6352653;28;20048;-75
2024/01/24 07:52:13;;;;;;;14.82;1.92;;;;;;;11.34;100.00;100734.75;6351164;27;20055;-76
2024/01/24 07:55:15;;;;;;;17.48;2.58;;;;;;;11.34;100.00;100763.72;6352417;27;20043;-76
2024/01/24 07:58:18;;;;;;;18.70;3.85;;;;;;;11.36;100.00;100756.59;6351891;28;20047;-75
2024/01/24 08:01:20;;;;;;;23.02;2.28;;;;;;;11.38;100.00;100770.50;6346406;27;20044;-77
2024/01/24 08:04:21;;;;;;;21.02;2.75;;;;;;;11.31;100.00;100780.53;6341076;27;20462;-76
2024/01/24 08:07:23;;;;;;;19.73;2.88;;;;;;;11.16;100.00;100778.72;6348783;28;20046;-75
2024/01/24 08:10:24;;;;;;;18.70;2.67;;;;;;;11.16;100.00;100789.25;6352985;28;20058;-74
2024/01/24 08:13:27;;;;;;;22.15;3.60;;;;;;;11.22;100.00;100780.16;6352526;28;20468;-75
2024/01/24 08:16:29;;;;;;;19.83;3.22;;;;;;;11.22;100.00;100809.09;6352394;28;20360;-79
2024/01/24 08:19:30;;;;;;;31.15;3.45;;;;;;;11.02;100.00;100768.13;6376806;27;20047;-77
2024/01/24 08:22:32;;;;;;;27.65;2.58;;;;;;;11.11;100.00;100789.50;6365178;27;20047;-78
2024/01/24 08:25:34;;;;;;;24.67;2.90;;;;;;;11.01;100.00;100780.44;6352627;28;20056;-78
2024/01/24 08:28:37;;;;;;;14.70;2.30;;;;;;;11.02;100.00;100797.06;6352116;27;20054;-80
2024/01/24 08:31:38;;;;;;;26.55;2.88;;;;;;;11.09;100.00;100785.28;6352049;28;20098;-78
2024/01/24 08:34:39;;;;;;;24.95;2.47;;;;;;;11.15;100.00;100788.41;6351197;28;20478;-77
2024/01/24 08:37:41;;;;;;;19.23;2.63;;;;;;;11.13;100.00;100787.66;6350386;28;20134;-79
2024/01/24 08:40:42;;;;;;;12.15;2.70;;;;;;;11.15;100.00;100777.88;6352596;28;20047;-79
2024/01/24 08:43:45;;;;;;;27.63;2.92;;;;;;;11.23;100.00;100798.50;6351774;28;20039;-78
2024/01/24 08:46:48;;;;;;;25.45;2.92;;;;;;;11.09;100.00;100796.66;6351615;28;20058;-78
2024/01/24 08:49:52;;;;;;;19.90;2.42;;;;;;;11.14;100.00;100809.53;6352280;28;20100;-77
2024/01/24 08:52:54;;;;;;;22.80;3.42;;;;;;;11.16;100.00;100824.28;6351704;28;20317;-76
2024/01/24 08:55:55;;;;;;;11.80;2.65;;;;;;;11.14;100.00;100822.69;6351346;28;20054;-76
2024/01/24 08:58:58;;;;;;;34.92;4.82;;;;;;;11.17;100.00;100806.72;6351899;28;20484;-77
2024/01/24 09:02:01;;;;;;;17.63;2.70;;;;;;;11.16;100.00;100818.19;6351315;28;20044;-77
2024/01/24 09:05:03;;;;;;;11.25;3.22;;;;;;;11.29;100.00;100813.09;6351478;28;20347;-78
2024/01/24 09:08:05;;;;;;;12.00;2.55;;;;;;;11.30;100.00;100836.69;6350889;28;20348;-78
2024/01/24 09:11:07;;;;;;;28.58;3.47;;;;;;;11.25;100.00;100853.66;6351184;28;20392;-78
2024/01/24 09:14:09;;;;;;;24.73;3.33;;;;;;;11.28;100.00;100828.03;6351240;28;20051;-79
2024/01/24 09:17:11;;;;;;;31.02;3.40;;;;;;;11.08;100.00;100839.66;6351319;27;20044;-78
2024/01/24 09:20:13;;;;;;;14.65;3.17;;;;;;;11.10;100.00;100850.94;6351320;28;20129;-77
2024/01/24 09:23:14;;;;;;;18.75;2.88;;;;;;;11.11;100.00;100870.19;6349914;28;20091;-76
2024/01/24 09:26:15;;;;;;;30.30;2.58;;;;;;;11.03;100.00;100867.13;6350862;28;20048;-79
2024/01/24 09:29:18;;;;;;;24.40;2.90;;;;;;;11.00;100.00;100841.84;6350917;28;20355;-80
2024/01/24 09:32:19;;;;;;;18.02;2.50;;;;;;;11.12;100.00;100845.59;6348219;28;20447;-80
2024/01/24 09:35:21;;;;;;;25.83;3.38;;;;;;;11.14;100.00;100896.34;6350136;28;20075;-78
2024/01/24 09:38:22;;;;;;;16.85;2.95;;;;;;;11.21;100.00;100866.13;6350231;28;20454;-79
2024/01/24 09:41:25;;;;;;;12.63;2.45;;;;;;;11.32;100.00;100860.31;6352251;28;20130;-79
2024/01/24 09:44:32;;;;;;;15.07;2.28;;;;;;;11.24;100.00;100881.75;6353345;28;20051;-77
2024/01/24 09:47:34;;;;;;;18.65;2.72;;;;;;;11.24;100.00;100901.97;6351453;28;20451;-78
2024/01/24 09:50:36;;;;;;;25.58;4.03;;;;;;;11.20;100.00;100896.00;6348421;28;20059;-78
2024/01/24 09:53:39;;;;;;;17.15;2.50;;;;;;;11.31;100.00;100904.19;6350340;28;20051;-78
2024/01/24 09:56:41;;;;;;;15.05;2.42;;;;;;;11.34;100.00;100904.00;6349930;28;20438;-78
2024/01/24 09:59:43;;;;;;;18.08;3.30;;;;;;;11.32;100.00;100883.97;6350430;28;20429;-78
2024/01/24 10:02:46;;;;;;;20.25;2.78;;;;;;;11.24;100.00;100905.44;6350008;28;20444;-77
2024/01/24 10:05:50;;;;;;;23.90;3.10;;;;;;;11.31;100.00;100888.41;6350364;28;20352;-77
2024/01/24 10:08:52;;;;;;;19.75;3.35;;;;;;;11.34;100.00;100896.09;6351038;27;20046;-76
2024/01/24 10:11:53;;;;;;;17.25;2.47;;;;;;;11.27;100.00;100933.38;6377250;27;20053;-74
2024/01/24 10:14:56;;;;;;;24.17;3.50;;;;;;;11.41;100.00;100908.00;6374754;27;20062;-78
2024/01/24 10:17:57;;;;;;;14.57;2.67;;;;;;;11.32;100.00;100923.44;6375330;28;20362;-77
2024/01/24 10:21:01;;;;;;;21.15;2.78;;;;;;;11.29;100.00;100929.72;6375706;28;20051;-76
2024/01/24 10:24:04;;;;;;;24.45;3.50;;;;;;;11.26;100.00;100931.66;6375412;28;20047;-75
2024/01/24 10:27:05;;;;;;;21.58;3.50;;;;;;;11.16;100.00;100929.50;6371694;28;20057;-76
2024/01/24 10:30:12;;;;;;;21.42;3.00;;;;;;;11.21;100.00;100947.69;6350037;28;20052;-74
2024/01/24 10:33:13;;;;;;;23.77;2.85;;;;;;;11.32;100.00;100913.78;6349647;28;20048;-77
2024/01/24 10:36:15;;;;;;;14.05;2.45;;;;;;;11.27;100.00;100918.44;6349852;28;20051;-78
2024/01/24 10:39:18;;;;;;;19.98;3.28;;;;;;;11.26;100.00;100926.38;6350128;28;20047;-78
2024/01/24 10:42:20;;;;;;;25.58;2.65;;;;;;;11.23;100.00;100922.16;6350207;28;20051;-78
2024/01/24 10:45:26;;;;;;;16.20;2.80;;;;;;;11.25;100.00;100940.47;6349686;28;20051;-77
2024/01/24 10:48:29;;;;;;;23.90;2.85;;;;;;;11.22;100.00;100967.81;6349326;28;20054;-77
2024/01/24 10:51:31;;;;;;;26.25;3.67;;;;;;;11.24;100.00;100937.00;6350191;28;20044;-78
2024/01/24 10:54:35;;;;;;;22.98;2.55;;;;;;;11.22;100.00;100945.88;6349620;28;20348;-77
2024/01/24 10:57:38;;;;;;;22.23;2.83;;;;;;;11.31;100.00;100948.03;6349708;28;20124;-77
2024/01/24 11:00:41;;;;;;;22.80;3.33;;;;;;;11.17;100.00;100940.88;6349668;28;20047;-75
2024/01/24 11:03:46;;;;;;;20.27;3.33;;;;;;;11.33;100.00;100948.81;6349614;28;20130;-78
2024/01/24 11:06:53;;;;;;;17.83;3.58;;;;;;;11.32;100.00;100947.13;6349210;28;20047;-78
2024/01/24 11:10:10;;;;;;;22.85;2.70;;;;;;;11.22;100.00;100938.88;6348881;28;20348;-71
2024/01/24 11:13:12;;;;;;;13.85;2.65;;;;;;;11.34;100.00;100956.63;6348767;28;20040;-73
2024/01/24 11:16:31;;;;;;;14.55;2.45;;;;;;;11.25;100.00;100953.63;6348613;28;20348;-73
2024/01/24 11:19:32;;;;;;;29.65;3.30;;;;;;;11.24;100.00;100971.19;6349298;28;20138;-78
2024/01/24 11:22:34;;;;;;;17.85;3.22;;;;;;;11.20;100.00;100966.19;6349278;28;20051;-77
2024/01/24 11:25:38;;;;;;;24.20;3.33;;;;;;;11.31;100.00;100969.97;6351960;28;20051;-76
2024/01/24 11:28:39;;;;;;;21.40;3.30;;;;;;;11.31;100.00;101012.06;6352975;28;20039;-74
2024/01/24 11:31:43;;;;;;;25.05;3.45;;;;;;;11.27;100.00;100986.84;6352514;28;20325;-78
2024/01/24 11:34:45;;;;;;;13.80;2.72;;;;;;;11.21;100.00;100996.81;6352908;28;20062;-78
2024/01/24 11:37:46;;;;;;;13.45;2.70;;;;;;;11.28;100.00;101006.09;6352978;28;20048;-77
2024/01/24 11:40:49;;;;;;;20.33;2.22;;;;;;;11.28;100.00;101014.84;6353322;28;20289;-76
2024/01/24 11:43:51;;;;;;;24.55;3.70;;;;;;;11.25;100.00;101022.03;6353285;28;20048;-77
2024/01/24 11:46:53;;;;;;;30.20;4.10;;;;;;;11.25;100.00;101020.25;6353574;28;20455;-77
2024/01/24 11:49:55;;;;;;;16.00;2.55;;;;;;;11.20;100.00;101035.41;6353715;28;20056;-78
2024/01/24 11:53:00;;;;;;;16.10;2.58;;;;;;;11.30;100.00;101026.13;6353255;28;20047;-76
2024/01/24 11:56:03;;;;;;;17.60;2.50;;;;;;;11.26;100.00;101029.00;6353133;28;20047;-78
2024/01/24 11:59:04;;;;;;;15.02;2.05;;;;;;;11.30;100.00;101043.69;6353401;28;20047;-75
2024/01/24 12:02:07;;;;;;;8.88;2.42;;;;;;;11.30;100.00;101035.78;6353480;28;20055;-76
2024/01/24 12:05:09;;;;;;;15.68;2.38;;;;;;;11.24;100.00;101036.97;6353063;28;20047;-76
2024/01/24 12:08:12;;;;;;;16.70;1.85;;;;;;;11.29;100.00;101039.38;6352902;28;20059;-76
2024/01/24 12:11:13;;;;;;;12.73;2.28;;;;;;;11.30;100.00;101070.00;6352500;28;20050;-79
2024/01/24 12:14:15;;;;;;;24.67;3.50;;;;;;;11.41;100.00;101050.09;6352751;28;20040;-79
2024/01/24 12:17:17;;;;;;;15.52;2.30;;;;;;;11.31;100.00;101071.69;6352505;28;20059;-77
2024/01/24 12:20:20;;;;;;;11.25;2.28;;;;;;;11.35;100.00;101060.09;6352900;28;20080;-77
2024/01/24 12:26:32;;;;;;;16.00;3.03;;;;;;;11.38;100.00;101081.84;6300412;28;20052;-79
2024/01/24 12:29:34;;;;;;;19.52;2.35;;;;;;;11.37;100.00;101132.78;6301940;28;20055;-79
2024/01/24 12:32:36;;;;;;;17.45;2.72;;;;;;;11.25;100.00;101093.06;6301798;28;20465;-79
2024/01/24 12:35:38;;;;;;;14.98;1.63;;;;;;;11.26;100.00;101098.25;6301385;28;20048;-76
2024/01/24 12:38:40;;;;;;;17.65;3.05;;;;;;;11.18;100.00;101118.84;6301392;28;20051;-77
2024/01/24 12:41:41;;;;;;;12.77;2.05;;;;;;;11.28;100.00;101120.06;6301912;28;20065;-79
2024/01/24 12:44:42;;;;;;;20.35;3.08;;;;;;;11.29;100.00;101108.63;6301256;28;20047;-78
2024/01/24 12:47:45;;;;;;;21.52;2.85;;;;;;;11.26;100.00;101111.41;6287773;28;20064;-79
2024/01/24 12:50:47;;;;;;;29.42;2.60;;;;;;;11.21;100.00;101109.94;6301492;28;20052;-77
2024/01/24 12:53:48;;;;;;;13.65;2.10;;;;;;;11.16;100.00;101137.31;6301444;28;20044;-77
2024/01/24 12:56:49;;;;;;;24.38;2.85;;;;;;;11.21;100.00;101131.81;6300789;28;20051;-75
2024/01/24 12:59:51;;;;;;;15.00;2.60;;;;;;;11.08;100.00;101128.97;6300889;28;20049;-76
2024/01/24 13:02:54;;;;;;;24.52;1.95;;;;;;;11.10;100.00;101140.25;6300925;28;20456;-75
2024/01/24 13:05:55;;;;;;;18.55;2.22;;;;;;;11.14;100.00;101180.41;6300270;28;20055;-75
2024/01/24 13:08:56;;;;;;;19.52;1.70;;;;;;;11.03;100.00;101165.13;6302362;28;20052;-74
2024/01/24 13:11:58;;;;;;;9.93;2.33;;;;;;;11.08;100.00;101141.25;6300134;28;20052;-74
2024/01/24 13:14:59;;;;;;;13.20;2.13;;;;;;;11.02;100.00;101152.06;6293748;28;20057;-75
2024/01/24 13:18:02;;;;;;;17.17;2.47;;;;;;;11.04;100.00;101152.88;6298884;28;20356;-76
2024/01/24 13:21:05;;;;;;;14.82;2.38;;;;;;;10.98;100.00;101158.41;6293908;28;20052;-75
2024/01/24 13:24:07;;;;;;;10.82;2.38;;;;;;;10.86;100.00;101187.00;6296932;28;20044;-75
2024/01/24 13:27:08;;;;;;;11.38;2.45;;;;;;;10.78;100.00;101181.25;6281744;28;20048;-75
2024/01/24 13:30:11;;;;;;;17.60;2.15;;;;;;;10.83;100.00;101200.28;6275868;28;20049;-75
2024/01/24 13:33:14;;;;;;;24.55;3.05;;;;;;;10.85;100.00;101193.16;6275798;28;20059;-76
2024/01/24 13:36:16;;;;;;;25.67;2.53;;;;;;;10.97;100.00;101198.78;6274552;28;20049;-75
2024/01/24 13:39:17;;;;;;;23.65;2.35;;;;;;;10.86;100.00;101208.03;6275020;28;20347;-75
2024/01/24 13:42:19;;;;;;;15.50;2.80;;;;;;;10.90;100.00;101225.38;6275694;28;20044;-73
2024/01/24 13:45:20;;;;;;;11.20;1.95;;;;;;;10.95;100.00;101219.91;6275169;28;20051;-75
2024/01/24 13:48:23;;;;;;;18.17;2.80;;;;;;;10.92;100.00;101220.03;6284961;28;20052;-75
2024/01/24 13:51:24;;;;;;;21.73;2.83;;;;;;;10.92;100.00;101227.94;6296246;28;20056;-76
2024/01/24 13:54:25;;;;;;;18.45;3.10;;;;;;;10.89;100.00;101238.56;6299411;28;20354;-76